sensor_id;sensor_type;location;lat;lon;timestamp;temperature;humidity
10451;DHT22;5273;51.290;6.918;2022-10-16T00:11:46;14.10;99.90
10451;DHT22;5273;51.290;6.918;2022-10-16T00:14:14;14.00;99.90
10451;DHT22;5273;51.290;6.918;2022-10-16T00:19:09;14.00;99.90
10451;DHT22;5273;51.290;6.918;2022-10-16T00:24:06;14.00;99.90
10451;DHT22;5273;51.290;6.918;2022-10-16T00:29:02;14.00;99.90
10451;DHT22;5273;51.290;6.918;2022-10-16T00:31:30;14.00;99.90
10451;DHT22;5273;51.290;6.918;2022-10-16T00:36:25;13.90;99.90
10451;DHT22;5273;51.290;6.918;2022-10-16T00:38:53;13.90;99.90
10451;DHT22;5273;51.290;6.918;2022-10-16T00:41:21;13.90;99.90
10451;DHT22;5273;51.290;6.918;2022-10-16T00:43:50;13.80;99.90
10451;DHT22;5273;51.290;6.918;2022-10-16T00:46:21;13.80;99.90
10451;DHT22;5273;51.290;6.918;2022-10-16T00:48:51;13.80;99.90
10451;DHT22;5273;51.290;6.918;2022-10-16T00:51:22;13.80;99.90
10451;DHT22;5273;51.290;6.918;2022-10-16T00:53:50;13.80;99.90
10451;DHT22;5273;51.290;6.918;2022-10-16T00:56:17;13.70;99.90
10451;DHT22;5273;51.290;6.918;2022-10-16T01:03:40;13.70;99.90
10451;DHT22;5273;51.290;6.918;2022-10-16T01:06:21;13.70;99.90
10451;DHT22;5273;51.290;6.918;2022-10-16T01:09:03;13.70;99.90
10451;DHT22;5273;51.290;6.918;2022-10-16T01:11:38;13.70;99.90
10451;DHT22;5273;51.290;6.918;2022-10-16T01:14:11;13.70;99.90
10451;DHT22;5273;51.290;6.918;2022-10-16T01:16:44;13.70;99.90
10451;DHT22;5273;51.290;6.918;2022-10-16T01:19:21;13.70;99.90
10451;DHT22;5273;51.290;6.918;2022-10-16T01:21:51;13.60;99.90
10451;DHT22;5273;51.290;6.918;2022-10-16T01:24:28;13.70;99.90
10451;DHT22;5273;51.290;6.918;2022-10-16T01:27:11;13.70;99.90
10451;DHT22;5273;51.290;6.918;2022-10-16T01:29:44;13.60;99.90
10451;DHT22;5273;51.290;6.918;2022-10-16T01:32:17;13.60;99.90
10451;DHT22;5273;51.290;6.918;2022-10-16T01:34:49;13.60;99.90
10451;DHT22;5273;51.290;6.918;2022-10-16T01:37:25;13.60;99.90
10451;DHT22;5273;51.290;6.918;2022-10-16T01:39:58;13.60;99.90
10451;DHT22;5273;51.290;6.918;2022-10-16T01:42:30;13.60;99.90
10451;DHT22;5273;51.290;6.918;2022-10-16T01:44:59;13.60;99.90
10451;DHT22;5273;51.290;6.918;2022-10-16T01:47:27;13.60;99.90
10451;DHT22;5273;51.290;6.918;2022-10-16T01:49:58;13.60;99.90
10451;DHT22;5273;51.290;6.918;2022-10-16T01:52:27;13.60;99.90
10451;DHT22;5273;51.290;6.918;2022-10-16T01:54:56;13.70;99.90
10451;DHT22;5273;51.290;6.918;2022-10-16T01:57:26;15.20;99.90
10451;DHT22;5273;51.290;6.918;2022-10-16T01:59:58;13.70;99.90
10451;DHT22;5273;51.290;6.918;2022-10-16T02:02:29;13.70;99.90
10451;DHT22;5273;51.290;6.918;2022-10-16T02:05:03;13.70;99.90
10451;DHT22;5273;51.290;6.918;2022-10-16T02:09:59;13.60;99.90
10451;DHT22;5273;51.290;6.918;2022-10-16T02:12:30;13.70;99.90
10451;DHT22;5273;51.290;6.918;2022-10-16T02:17:25;13.60;99.90
10451;DHT22;5273;51.290;6.918;2022-10-16T02:19:54;13.60;99.90
10451;DHT22;5273;51.290;6.918;2022-10-16T02:22:27;13.70;99.90
10451;DHT22;5273;51.290;6.918;2022-10-16T02:24:57;13.70;99.90
10451;DHT22;5273;51.290;6.918;2022-10-16T02:27:29;13.70;99.90
10451;DHT22;5273;51.290;6.918;2022-10-16T02:30:02;13.70;99.90
10451;DHT22;5273;51.290;6.918;2022-10-16T02:32:34;13.90;99.90
10451;DHT22;5273;51.290;6.918;2022-10-16T02:35:02;13.70;99.90
10451;DHT22;5273;51.290;6.918;2022-10-16T02:37:30;13.70;99.90
10451;DHT22;5273;51.290;6.918;2022-10-16T02:42:33;13.80;99.90
10451;DHT22;5273;51.290;6.918;2022-10-16T02:59:44;13.80;99.90
10451;DHT22;5273;51.290;6.918;2022-10-16T03:16:55;13.70;99.90
10451;DHT22;5273;51.290;6.918;2022-10-16T03:34:06;13.50;99.90
10451;DHT22;5273;51.290;6.918;2022-10-16T03:51:17;13.30;99.90
10451;DHT22;5273;51.290;6.918;2022-10-16T04:08:28;13.30;99.90
10451;DHT22;5273;51.290;6.918;2022-10-16T04:25:39;13.10;99.90
10451;DHT22;5273;51.290;6.918;2022-10-16T04:42:49;12.90;99.90
10451;DHT22;5273;51.290;6.918;2022-10-16T04:55:05;13.00;99.90
10451;DHT22;5273;51.290;6.918;2022-10-16T05:00:01;12.90;99.90
10451;DHT22;5273;51.290;6.918;2022-10-16T05:17:12;12.80;99.90
10451;DHT22;5273;51.290;6.918;2022-10-16T05:34:23;12.80;99.90
10451;DHT22;5273;51.290;6.918;2022-10-16T05:51:34;12.80;99.90
10451;DHT22;5273;51.290;6.918;2022-10-16T06:06:18;12.80;99.90
10451;DHT22;5273;51.290;6.918;2022-10-16T06:08:47;12.80;99.90
10451;DHT22;5273;51.290;6.918;2022-10-16T06:11:17;12.80;99.90
10451;DHT22;5273;51.290;6.918;2022-10-16T06:16:12;12.80;99.90
10451;DHT22;5273;51.290;6.918;2022-10-16T06:21:11;12.90;99.90
10451;DHT22;5273;51.290;6.918;2022-10-16T06:26:08;12.90;99.90
10451;DHT22;5273;51.290;6.918;2022-10-16T06:31:03;13.00;99.90
10451;DHT22;5273;51.290;6.918;2022-10-16T06:36:02;13.10;99.90
10451;DHT22;5273;51.290;6.918;2022-10-16T06:40:56;13.20;99.90
10451;DHT22;5273;51.290;6.918;2022-10-16T06:43:25;13.40;99.90
10451;DHT22;5273;51.290;6.918;2022-10-16T06:50:55;14.90;99.90
10451;DHT22;5273;51.290;6.918;2022-10-16T07:00:45;15.30;99.90
10451;DHT22;5273;51.290;6.918;2022-10-16T07:17:56;17.00;99.90
10451;DHT22;5273;51.290;6.918;2022-10-16T07:35:08;17.60;99.90
10451;DHT22;5273;51.290;6.918;2022-10-16T07:52:18;22.90;94.00
10451;DHT22;5273;51.290;6.918;2022-10-16T08:07:06;24.70;67.70
10451;DHT22;5273;51.290;6.918;2022-10-16T08:09:35;28.30;68.80
10451;DHT22;5273;51.290;6.918;2022-10-16T08:12:02;29.40;68.90
10451;DHT22;5273;51.290;6.918;2022-10-16T08:14:29;30.10;69.40
10451;DHT22;5273;51.290;6.918;2022-10-16T08:16:56;30.10;67.30
10451;DHT22;5273;51.290;6.918;2022-10-16T08:19:23;30.90;62.90
10451;DHT22;5273;51.290;6.918;2022-10-16T08:21:50;31.90;58.10
10451;DHT22;5273;51.290;6.918;2022-10-16T08:24:16;31.90;57.00
10451;DHT22;5273;51.290;6.918;2022-10-16T08:26:45;32.80;48.00
10451;DHT22;5273;51.290;6.918;2022-10-16T08:29:13;32.70;48.50
10451;DHT22;5273;51.290;6.918;2022-10-16T08:31:40;33.60;51.90
10451;DHT22;5273;51.290;6.918;2022-10-16T08:34:07;33.60;51.10
10451;DHT22;5273;51.290;6.918;2022-10-16T08:36:33;33.90;45.00
10451;DHT22;5273;51.290;6.918;2022-10-16T08:39:00;34.20;43.10
10451;DHT22;5273;51.290;6.918;2022-10-16T08:41:53;34.70;42.60
10451;DHT22;5273;51.290;6.918;2022-10-16T08:44:37;35.20;40.90
10451;DHT22;5273;51.290;6.918;2022-10-16T08:47:13;35.60;39.10
10451;DHT22;5273;51.290;6.918;2022-10-16T08:49:51;36.10;37.70
10451;DHT22;5273;51.290;6.918;2022-10-16T08:52:21;36.30;37.00
10451;DHT22;5273;51.290;6.918;2022-10-16T08:54:51;36.70;36.20
10451;DHT22;5273;51.290;6.918;2022-10-16T08:57:21;36.40;36.50
10451;DHT22;5273;51.290;6.918;2022-10-16T08:59:50;36.50;36.30
10451;DHT22;5273;51.290;6.918;2022-10-16T09:02:24;36.70;34.60
10451;DHT22;5273;51.290;6.918;2022-10-16T09:05:19;36.80;34.70
10451;DHT22;5273;51.290;6.918;2022-10-16T09:07:55;36.80;33.50
10451;DHT22;5273;51.290;6.918;2022-10-16T09:10:36;37.10;33.90
10451;DHT22;5273;51.290;6.918;2022-10-16T09:13:13;36.60;33.10
10451;DHT22;5273;51.290;6.918;2022-10-16T09:15:48;36.70;32.40
10451;DHT22;5273;51.290;6.918;2022-10-16T09:18:23;37.90;31.80
10451;DHT22;5273;51.290;6.918;2022-10-16T09:20:57;37.70;30.90
10451;DHT22;5273;51.290;6.918;2022-10-16T09:23:27;38.20;31.10
10451;DHT22;5273;51.290;6.918;2022-10-16T09:25:55;38.30;31.50
10451;DHT22;5273;51.290;6.918;2022-10-16T09:28:22;38.50;30.10
10451;DHT22;5273;51.290;6.918;2022-10-16T09:30:50;38.40;29.80
10451;DHT22;5273;51.290;6.918;2022-10-16T09:33:19;38.30;29.10
10451;DHT22;5273;51.290;6.918;2022-10-16T09:35:49;38.20;29.00
10451;DHT22;5273;51.290;6.918;2022-10-16T09:38:25;37.70;29.60
10451;DHT22;5273;51.290;6.918;2022-10-16T09:40:53;37.70;29.40
10451;DHT22;5273;51.290;6.918;2022-10-16T09:43:23;37.80;29.90
10451;DHT22;5273;51.290;6.918;2022-10-16T09:45:59;38.30;30.00
10451;DHT22;5273;51.290;6.918;2022-10-16T09:48:30;38.80;28.30
10451;DHT22;5273;51.290;6.918;2022-10-16T09:50:59;39.00;28.70
10451;DHT22;5273;51.290;6.918;2022-10-16T09:53:41;39.30;27.70
10451;DHT22;5273;51.290;6.918;2022-10-16T09:56:10;39.60;28.00
10451;DHT22;5273;51.290;6.918;2022-10-16T09:58:42;40.00;27.90
10451;DHT22;5273;51.290;6.918;2022-10-16T10:01:14;40.40;27.00
10451;DHT22;5273;51.290;6.918;2022-10-16T10:03:42;40.70;26.30
10451;DHT22;5273;51.290;6.918;2022-10-16T10:06:22;41.00;26.10
10451;DHT22;5273;51.290;6.918;2022-10-16T10:09:02;41.20;25.40
10451;DHT22;5273;51.290;6.918;2022-10-16T10:11:38;41.40;25.10
10451;DHT22;5273;51.290;6.918;2022-10-16T10:14:05;40.60;25.50
10451;DHT22;5273;51.290;6.918;2022-10-16T10:16:34;40.00;26.80
10451;DHT22;5273;51.290;6.918;2022-10-16T10:19:01;39.70;26.60
10451;DHT22;5273;51.290;6.918;2022-10-16T10:21:28;39.20;27.30
10451;DHT22;5273;51.290;6.918;2022-10-16T10:23:57;38.50;28.00
10451;DHT22;5273;51.290;6.918;2022-10-16T10:26:27;37.30;29.40
10451;DHT22;5273;51.290;6.918;2022-10-16T10:28:59;35.50;37.30
10451;DHT22;5273;51.290;6.918;2022-10-16T10:31:36;34.30;37.80
10451;DHT22;5273;51.290;6.918;2022-10-16T10:34:19;33.80;39.60
10451;DHT22;5273;51.290;6.918;2022-10-16T10:36:52;33.30;39.40
10451;DHT22;5273;51.290;6.918;2022-10-16T10:39:27;32.40;41.00
10451;DHT22;5273;51.290;6.918;2022-10-16T10:42:08;31.90;42.30
10451;DHT22;5273;51.290;6.918;2022-10-16T10:44:59;32.40;43.60
10451;DHT22;5273;51.290;6.918;2022-10-16T10:47:41;31.50;44.10
10451;DHT22;5273;51.290;6.918;2022-10-16T10:50:19;30.90;37.40
10451;DHT22;5273;51.290;6.918;2022-10-16T10:52:58;30.50;38.80
10451;DHT22;5273;51.290;6.918;2022-10-16T10:55:33;30.00;38.90
10451;DHT22;5273;51.290;6.918;2022-10-16T10:58:32;30.00;43.10
10451;DHT22;5273;51.290;6.918;2022-10-16T11:01:08;29.30;40.60
10451;DHT22;5273;51.290;6.918;2022-10-16T11:03:54;29.10;41.40
10451;DHT22;5273;51.290;6.918;2022-10-16T11:06:26;29.00;42.50
10451;DHT22;5273;51.290;6.918;2022-10-16T11:09:00;28.90;42.80
10451;DHT22;5273;51.290;6.918;2022-10-16T11:11:32;28.40;44.80
10451;DHT22;5273;51.290;6.918;2022-10-16T11:14:05;28.80;43.50
10451;DHT22;5273;51.290;6.918;2022-10-16T11:16:39;28.50;42.50
10451;DHT22;5273;51.290;6.918;2022-10-16T11:19:14;28.40;44.60
10451;DHT22;5273;51.290;6.918;2022-10-16T11:21:45;28.20;42.80
10451;DHT22;5273;51.290;6.918;2022-10-16T11:24:21;28.00;43.60
10451;DHT22;5273;51.290;6.918;2022-10-16T11:26:50;27.80;45.20
10451;DHT22;5273;51.290;6.918;2022-10-16T11:29:21;27.70;44.30
10451;DHT22;5273;51.290;6.918;2022-10-16T11:31:53;27.60;44.20
10451;DHT22;5273;51.290;6.918;2022-10-16T11:34:27;27.40;45.40
10451;DHT22;5273;51.290;6.918;2022-10-16T11:36:58;27.30;44.80
10451;DHT22;5273;51.290;6.918;2022-10-16T11:39:29;27.10;45.30
10451;DHT22;5273;51.290;6.918;2022-10-16T11:42:02;27.00;46.00
10451;DHT22;5273;51.290;6.918;2022-10-16T11:44:42;26.90;45.50
10451;DHT22;5273;51.290;6.918;2022-10-16T11:47:24;26.90;46.10
10451;DHT22;5273;51.290;6.918;2022-10-16T11:49:58;26.90;47.30
10451;DHT22;5273;51.290;6.918;2022-10-16T11:52:28;26.70;46.80
10451;DHT22;5273;51.290;6.918;2022-10-16T11:55:01;26.60;48.20
10451;DHT22;5273;51.290;6.918;2022-10-16T11:57:33;26.40;47.00
10451;DHT22;5273;51.290;6.918;2022-10-16T12:00:05;26.30;47.10
10451;DHT22;5273;51.290;6.918;2022-10-16T12:02:54;25.90;47.00
10451;DHT22;5273;51.290;6.918;2022-10-16T12:05:29;26.10;47.60
10451;DHT22;5273;51.290;6.918;2022-10-16T12:08:06;26.10;49.70
10451;DHT22;5273;51.290;6.918;2022-10-16T12:10:35;26.10;49.20
10451;DHT22;5273;51.290;6.918;2022-10-16T12:15:31;26.10;48.20
10451;DHT22;5273;51.290;6.918;2022-10-16T12:20:29;25.80;47.80
10451;DHT22;5273;51.290;6.918;2022-10-16T12:22:59;25.70;49.40
10451;DHT22;5273;51.290;6.918;2022-10-16T12:25:29;25.70;48.70
10451;DHT22;5273;51.290;6.918;2022-10-16T12:28:01;25.70;50.00
10451;DHT22;5273;51.290;6.918;2022-10-16T12:30:31;25.80;50.00
10451;DHT22;5273;51.290;6.918;2022-10-16T12:33:01;25.80;49.70
10451;DHT22;5273;51.290;6.918;2022-10-16T12:35:31;25.70;49.40
10451;DHT22;5273;51.290;6.918;2022-10-16T12:38:07;25.60;48.90
10451;DHT22;5273;51.290;6.918;2022-10-16T12:40:36;25.50;49.00
10451;DHT22;5273;51.290;6.918;2022-10-16T12:43:34;25.30;47.90
10451;DHT22;5273;51.290;6.918;2022-10-16T12:46:04;25.20;49.30
10451;DHT22;5273;51.290;6.918;2022-10-16T12:51:11;25.10;50.10
10451;DHT22;5273;51.290;6.918;2022-10-16T12:56:15;24.90;49.70
10451;DHT22;5273;51.290;6.918;2022-10-16T12:59:04;24.90;50.40
10451;DHT22;5273;51.290;6.918;2022-10-16T13:01:46;24.90;51.30
10451;DHT22;5273;51.290;6.918;2022-10-16T13:04:34;25.10;51.50
10451;DHT22;5273;51.290;6.918;2022-10-16T13:07:28;25.20;50.70
10451;DHT22;5273;51.290;6.918;2022-10-16T13:10:06;25.20;51.00
10451;DHT22;5273;51.290;6.918;2022-10-16T13:13:05;25.20;50.80
10451;DHT22;5273;51.290;6.918;2022-10-16T13:15:47;25.10;51.30
10451;DHT22;5273;51.290;6.918;2022-10-16T13:18:22;25.00;51.90
10451;DHT22;5273;51.290;6.918;2022-10-16T13:20:58;25.00;52.20
10451;DHT22;5273;51.290;6.918;2022-10-16T13:23:33;24.90;51.60
10451;DHT22;5273;51.290;6.918;2022-10-16T13:26:12;24.90;51.20
10451;DHT22;5273;51.290;6.918;2022-10-16T13:31:14;24.80;52.90
10451;DHT22;5273;51.290;6.918;2022-10-16T13:33:46;24.60;52.80
10451;DHT22;5273;51.290;6.918;2022-10-16T13:36:22;24.40;52.20
10451;DHT22;5273;51.290;6.918;2022-10-16T13:39:00;24.20;52.90
10451;DHT22;5273;51.290;6.918;2022-10-16T13:46:25;23.80;54.60
10451;DHT22;5273;51.290;6.918;2022-10-16T13:48:58;23.60;54.40
10451;DHT22;5273;51.290;6.918;2022-10-16T13:53:55;23.50;53.80
10451;DHT22;5273;51.290;6.918;2022-10-16T13:56:24;23.50;53.40
10451;DHT22;5273;51.290;6.918;2022-10-16T13:58:59;23.40;55.10
10451;DHT22;5273;51.290;6.918;2022-10-16T14:01:28;23.40;55.70
10451;DHT22;5273;51.290;6.918;2022-10-16T14:04:01;23.50;55.40
10451;DHT22;5273;51.290;6.918;2022-10-16T14:09:00;23.80;55.20
10451;DHT22;5273;51.290;6.918;2022-10-16T14:16:25;23.40;54.80
10451;DHT22;5273;51.290;6.918;2022-10-16T14:18:57;23.30;54.50
10451;DHT22;5273;51.290;6.918;2022-10-16T14:23:52;23.30;54.70
10451;DHT22;5273;51.290;6.918;2022-10-16T14:26:23;23.20;55.10
10451;DHT22;5273;51.290;6.918;2022-10-16T14:29:03;23.20;55.70
10451;DHT22;5273;51.290;6.918;2022-10-16T14:31:32;23.20;56.70
10451;DHT22;5273;51.290;6.918;2022-10-16T14:33:59;23.20;57.30
10451;DHT22;5273;51.290;6.918;2022-10-16T14:36:27;23.00;57.50
10451;DHT22;5273;51.290;6.918;2022-10-16T14:38:59;23.00;58.70
10451;DHT22;5273;51.290;6.918;2022-10-16T14:41:29;22.90;58.20
10451;DHT22;5273;51.290;6.918;2022-10-16T14:43:58;22.80;58.40
10451;DHT22;5273;51.290;6.918;2022-10-16T14:46:33;22.70;59.70
10451;DHT22;5273;51.290;6.918;2022-10-16T14:49:04;22.70;59.90
10451;DHT22;5273;51.290;6.918;2022-10-16T14:51:40;22.70;59.50
10451;DHT22;5273;51.290;6.918;2022-10-16T14:54:08;22.70;59.00
10451;DHT22;5273;51.290;6.918;2022-10-16T14:56:47;22.70;59.50
10451;DHT22;5273;51.290;6.918;2022-10-16T14:59:16;22.70;59.50
10451;DHT22;5273;51.290;6.918;2022-10-16T15:04:12;22.70;59.70
10451;DHT22;5273;51.290;6.918;2022-10-16T15:14:02;22.60;61.50
10451;DHT22;5273;51.290;6.918;2022-10-16T15:16:31;22.50;61.50
10451;DHT22;5273;51.290;6.918;2022-10-16T15:21:27;22.50;62.10
10451;DHT22;5273;51.290;6.918;2022-10-16T15:31:17;22.00;65.00
10451;DHT22;5273;51.290;6.918;2022-10-16T15:46:10;20.90;71.70
10451;DHT22;5273;51.290;6.918;2022-10-16T15:48:41;20.80;74.00
10451;DHT22;5273;51.290;6.918;2022-10-16T15:53:36;20.50;76.50
10451;DHT22;5273;51.290;6.918;2022-10-16T16:00:58;20.20;83.90
10451;DHT22;5273;51.290;6.918;2022-10-16T16:05:55;20.00;83.00
10451;DHT22;5273;51.290;6.918;2022-10-16T16:10:58;19.80;86.30
10451;DHT22;5273;51.290;6.918;2022-10-16T16:18:21;19.50;87.50
10451;DHT22;5273;51.290;6.918;2022-10-16T16:23:17;19.30;88.30
10451;DHT22;5273;51.290;6.918;2022-10-16T16:40:29;18.90;90.70
10451;DHT22;5273;51.290;6.918;2022-10-16T16:57:40;18.70;92.40
10451;DHT22;5273;51.290;6.918;2022-10-16T17:00:08;18.70;92.70
10451;DHT22;5273;51.290;6.918;2022-10-16T17:07:31;18.50;93.20
10451;DHT22;5273;51.290;6.918;2022-10-16T17:10:00;18.40;93.50
10451;DHT22;5273;51.290;6.918;2022-10-16T17:12:29;18.40;93.80
10451;DHT22;5273;51.290;6.918;2022-10-16T17:14:57;18.30;94.20
10451;DHT22;5273;51.290;6.918;2022-10-16T17:19:51;18.30;94.70
10451;DHT22;5273;51.290;6.918;2022-10-16T17:24:48;18.20;95.20
10451;DHT22;5273;51.290;6.918;2022-10-16T17:29:44;18.00;96.10
10451;DHT22;5273;51.290;6.918;2022-10-16T17:32:12;18.00;96.40
10451;DHT22;5273;51.290;6.918;2022-10-16T17:49:23;17.90;98.30
10451;DHT22;5273;51.290;6.918;2022-10-16T17:51:51;17.90;98.60
10451;DHT22;5273;51.290;6.918;2022-10-16T18:04:11;17.80;99.90
10451;DHT22;5273;51.290;6.918;2022-10-16T18:06:41;17.80;99.90
10451;DHT22;5273;51.290;6.918;2022-10-16T18:09:10;17.80;99.90
10451;DHT22;5273;51.290;6.918;2022-10-16T18:23:57;17.80;99.90
10451;DHT22;5273;51.290;6.918;2022-10-16T18:31:19;17.80;99.90
10451;DHT22;5273;51.290;6.918;2022-10-16T18:36:16;17.80;99.90
10451;DHT22;5273;51.290;6.918;2022-10-16T18:41:13;17.80;99.90
10451;DHT22;5273;51.290;6.918;2022-10-16T18:46:09;17.80;99.90
10451;DHT22;5273;51.290;6.918;2022-10-16T18:51:10;17.80;99.90
10451;DHT22;5273;51.290;6.918;2022-10-16T18:53:41;17.80;99.90
10451;DHT22;5273;51.290;6.918;2022-10-16T18:58:37;17.80;99.90
10451;DHT22;5273;51.290;6.918;2022-10-16T19:01:07;17.80;99.90
10451;DHT22;5273;51.290;6.918;2022-10-16T19:03:35;18.70;99.90
10451;DHT22;5273;51.290;6.918;2022-10-16T19:06:05;17.80;99.90
10451;DHT22;5273;51.290;6.918;2022-10-16T19:08:33;17.80;99.90
10451;DHT22;5273;51.290;6.918;2022-10-16T19:11:03;17.70;99.90
10451;DHT22;5273;51.290;6.918;2022-10-16T19:15:59;17.70;99.90
10451;DHT22;5273;51.290;6.918;2022-10-16T19:33:12;17.60;99.90
10451;DHT22;5273;51.290;6.918;2022-10-16T19:50:22;17.40;99.90
10451;DHT22;5273;51.290;6.918;2022-10-16T20:00:12;17.40;99.90
10451;DHT22;5273;51.290;6.918;2022-10-16T20:05:07;17.40;99.90
10451;DHT22;5273;51.290;6.918;2022-10-16T20:07:35;17.50;99.90
10451;DHT22;5273;51.290;6.918;2022-10-16T20:24:46;17.10;99.90
10451;DHT22;5273;51.290;6.918;2022-10-16T20:41:56;16.70;99.90
10451;DHT22;5273;51.290;6.918;2022-10-16T20:46:53;16.80;99.90
10451;DHT22;5273;51.290;6.918;2022-10-16T20:59:11;16.70;99.90
10451;DHT22;5273;51.290;6.918;2022-10-16T21:01:38;16.70;99.90
10451;DHT22;5273;51.290;6.918;2022-10-16T21:04:07;16.70;99.90
10451;DHT22;5273;51.290;6.918;2022-10-16T21:06:35;16.70;99.90
10451;DHT22;5273;51.290;6.918;2022-10-16T21:09:03;16.70;99.90
10451;DHT22;5273;51.290;6.918;2022-10-16T21:11:33;16.60;99.90
10451;DHT22;5273;51.290;6.918;2022-10-16T21:14:01;16.60;99.90
10451;DHT22;5273;51.290;6.918;2022-10-16T21:16:29;16.60;99.90
10451;DHT22;5273;51.290;6.918;2022-10-16T21:21:25;16.60;99.90
10451;DHT22;5273;51.290;6.918;2022-10-16T21:23:52;16.60;99.90
10451;DHT22;5273;51.290;6.918;2022-10-16T21:26:20;16.60;99.90
10451;DHT22;5273;51.290;6.918;2022-10-16T21:31:19;16.60;99.90
10451;DHT22;5273;51.290;6.918;2022-10-16T21:33:48;16.60;99.90
10451;DHT22;5273;51.290;6.918;2022-10-16T21:36:16;16.60;99.90
10451;DHT22;5273;51.290;6.918;2022-10-16T21:38:44;16.60;99.90
10451;DHT22;5273;51.290;6.918;2022-10-16T21:41:12;16.60;99.90
10451;DHT22;5273;51.290;6.918;2022-10-16T21:51:02;16.60;99.90
10451;DHT22;5273;51.290;6.918;2022-10-16T22:08:13;16.30;99.90
10451;DHT22;5273;51.290;6.918;2022-10-16T22:25:25;16.30;99.90
10451;DHT22;5273;51.290;6.918;2022-10-16T22:40:09;16.40;99.90
10451;DHT22;5273;51.290;6.918;2022-10-16T22:42:37;16.40;99.90
10451;DHT22;5273;51.290;6.918;2022-10-16T22:45:05;16.50;99.90
10451;DHT22;5273;51.290;6.918;2022-10-16T22:59:48;16.50;99.90
10451;DHT22;5273;51.290;6.918;2022-10-16T23:16:59;16.60;99.90
10451;DHT22;5273;51.290;6.918;2022-10-16T23:19:26;16.60;99.90
10451;DHT22;5273;51.290;6.918;2022-10-16T23:34:10;16.60;99.90
10451;DHT22;5273;51.290;6.918;2022-10-16T23:51:20;16.60;99.90
